»·PEaware :: SWA5842 KTUS-KELP

SWA5842 :: KTUS-KELP

FLIGHT INFORMATION

Flight Status: Arrived
Operator:
Southwest Airlines
More flights by this operator :: More flights under this callsign
Pilot: Alex K. (14822)
Aircraft: BOEING 737-200
(B732)
More flights by this aircraft type
Origin: KTUS Tucson Intl
United States
Destination: KELP El Paso Intl
United States
More flights between these airports :: More routes between these airports
Route: SSO DMN EWM
File this flight plan on PilotEdge
Remarks: PBN / A1B2 NAV / RNVD1E2A1 DAT / V DOF / 180111 REG / N275SB EET / MMTY0046 RMK / NRP SIMBRIEF
Altitude:
(Current/Filed)
29,000ft
Speed:
(Current/Filed)
439kts
Departed: 10-Jan-18 05:47 PM
Arrived: 10-Jan-18 06:37 PM
Distance/Time
Traveled:
232nm/0:50
Distance/Time
To Go:
Arrived

Flight Plot

Page will automatically refresh every two minutes.

Flight plan parsing failed; only flown route is shown


Map Options




Map Legend


Flown Route
Filed Route
Departure Airport
Arrival Airport
Navaid (VOR, NDB)
Fix

Horizontal Profiles

Position Reports

Time Latitude Longitude Heading Altitude Ground
Speed
10-Jan-18 17:22 32.119990 -110.938242 46 2601ft 0kts
10-Jan-18 17:23 32.119990 -110.938242 46 2601ft 0kts
10-Jan-18 17:24 32.119990 -110.938242 46 2601ft 0kts
10-Jan-18 17:25 32.119990 -110.938242 46 2601ft 0kts
10-Jan-18 17:26 32.119990 -110.938242 46 2601ft 0kts
10-Jan-18 17:27 32.119990 -110.938242 46 2601ft 0kts
10-Jan-18 17:28 32.119990 -110.938242 46 2601ft 0kts
10-Jan-18 17:29 32.119990 -110.938242 46 2601ft 0kts
10-Jan-18 17:30 32.119990 -110.938242 46 2601ft 0kts
10-Jan-18 17:31 32.119990 -110.938242 46 2601ft 0kts
10-Jan-18 17:32 32.119990 -110.938242 46 2601ft 0kts
10-Jan-18 17:33 32.119990 -110.938242 46 2601ft 0kts
10-Jan-18 17:34 32.119990 -110.938242 46 2601ft 0kts
10-Jan-18 17:35 32.119990 -110.938242 46 2601ft 0kts
10-Jan-18 17:36 32.119936 -110.938309 46 2601ft 2kts
10-Jan-18 17:37 32.119626 -110.938885 90 2601ft 2kts
10-Jan-18 17:38 32.119755 -110.939240 135 2601ft 0kts
10-Jan-18 17:39 32.119755 -110.939240 135 2601ft 0kts
10-Jan-18 17:40 32.118011 -110.937714 205 2606ft 12kts
10-Jan-18 17:41 32.115085 -110.935651 135 2615ft 14kts
10-Jan-18 17:42 32.111951 -110.931992 135 2626ft 16kts
10-Jan-18 17:43 32.108677 -110.928123 135 2637ft 19kts
10-Jan-18 17:44 32.104658 -110.923451 134 2653ft 18kts
10-Jan-18 17:45 32.104214 -110.922910 135 2654ft 0kts
10-Jan-18 17:46 32.103707 -110.922335 138 2655ft 0kts
10-Jan-18 17:47 32.103707 -110.922335 138 2655ft 0kts
10-Jan-18 17:48 32.103540 -110.922173 147 2655ft 0kts
10-Jan-18 17:49 32.103504 -110.922149 153 2655ft 0kts
10-Jan-18 17:50 32.103186 -110.922289 221 2655ft 0kts
10-Jan-18 17:51 32.102533 -110.922927 222 2654ft 12kts
10-Jan-18 17:52 32.102517 -110.923435 316 2653ft 0kts
10-Jan-18 17:53 32.116228 -110.939042 317 2921ft 154kts
10-Jan-18 17:54 32.150763 -110.980209 311 4653ft 199kts
10-Jan-18 17:55 32.196527 -111.013295 21 6682ft 223kts
10-Jan-18 17:56 32.212000 -110.938106 97 7728ft 288kts
10-Jan-18 17:57 32.213011 -110.843138 86 10055ft 294kts
10-Jan-18 17:58 32.217217 -110.739241 83 11192ft 337kts
10-Jan-18 17:59 32.222161 -110.621903 85 12593ft 365kts
10-Jan-18 18:00 32.226947 -110.506502 86 15000ft 349kts
10-Jan-18 18:01 32.231589 -110.384116 82 15641ft 391kts
10-Jan-18 18:02 32.236156 -110.256390 82 17265ft 395kts
10-Jan-18 18:03 32.240930 -110.125353 82 18856ft 404kts
10-Jan-18 18:04 32.245801 -109.993174 82 20255ft 412kts
10-Jan-18 18:05 32.250539 -109.858631 82 21478ft 420kts
10-Jan-18 18:06 32.255317 -109.719615 82 22585ft 427kts
10-Jan-18 18:07 32.259991 -109.579116 82 23586ft 434kts
10-Jan-18 18:08 32.264587 -109.436047 82 24526ft 440kts
10-Jan-18 18:09 32.268790 -109.291961 83 25346ft 445kts
10-Jan-18 18:10 32.269524 -109.145036 85 26065ft 450kts
10-Jan-18 18:11 32.269199 -108.996633 85 26624ft 455kts
10-Jan-18 18:12 32.268879 -108.846849 85 27177ft 458kts
10-Jan-18 18:13 32.268396 -108.695665 85 27697ft 462kts
10-Jan-18 18:14 32.267730 -108.543355 84 28168ft 465kts
10-Jan-18 18:15 32.266879 -108.390627 84 28589ft 468kts
10-Jan-18 18:16 32.277529 -108.243510 79 28928ft 467kts
10-Jan-18 18:17 32.281202 -108.088166 84 28998ft 480kts
10-Jan-18 18:18 32.280114 -107.930073 85 28985ft 480kts
10-Jan-18 18:19 32.278269 -107.776783 85 27168ft 461kts
10-Jan-18 18:20 32.276111 -107.627805 85 25266ft 448kts
10-Jan-18 18:21 32.245740 -107.485680 104 23431ft 445kts
10-Jan-18 18:22 32.209424 -107.348443 104 21667ft 434kts
10-Jan-18 18:23 32.174596 -107.216942 104 20566ft 406kts
10-Jan-18 18:24 32.142405 -107.094468 104 19511ft 381kts
10-Jan-18 18:25 32.111524 -106.977154 104 17898ft 373kts
10-Jan-18 18:26 32.080937 -106.861483 104 16333ft 365kts
10-Jan-18 18:27 32.051107 -106.749509 104 14832ft 357kts
10-Jan-18 18:28 32.035163 -106.637394 93 13339ft 346kts
10-Jan-18 18:29 32.015638 -106.527828 102 11936ft 340kts
10-Jan-18 18:30 31.994112 -106.434055 104 11224ft 312kts
10-Jan-18 18:31 31.974947 -106.331415 105 9607ft 314kts
10-Jan-18 18:32 31.957832 -106.234719 132 8550ft 282kts
10-Jan-18 18:33 31.906547 -106.173966 174 8016ft 237kts
10-Jan-18 18:34 31.848953 -106.176732 168 7489ft 206kts
10-Jan-18 18:35 31.796271 -106.149102 156 6211ft 204kts
10-Jan-18 18:36 31.749439 -106.144887 245 6089ft 177kts
10-Jan-18 18:37 31.759764 -106.199930 303 6340ft 174kts
10-Jan-18 18:38 31.785448 -106.239208 295 5707ft 131kts
10-Jan-18 18:39 31.796731 -106.275689 273 5371ft 116kts
10-Jan-18 18:40 31.798371 -106.313080 270 4824ft 113kts
10-Jan-18 18:41 31.800044 -106.348087 272 4229ft 105kts
10-Jan-18 18:42 31.801604 -106.379715 270 3940ft 64kts
10-Jan-18 18:43 31.800668 -106.385047 184 3936ft 0kts
10-Jan-18 18:44 31.800617 -106.385054 184 3936ft 3kts
10-Jan-18 18:45 31.799844 -106.387525 273 3931ft 15kts
10-Jan-18 18:46 31.800301 -106.392243 315 3926ft 10kts
10-Jan-18 18:47 31.800524 -106.392505 312 3926ft 0kts
10-Jan-18 18:48 31.800524 -106.392505 312 3926ft 0kts
10-Jan-18 18:49 31.800524 -106.392505 312 3926ft 0kts
10-Jan-18 18:50 31.800523 -106.392505 313 3926ft 0kts
10-Jan-18 18:51 31.800524 -106.392505 312 3926ft 0kts
10-Jan-18 18:52 31.800524 -106.392505 312 3926ft 0kts
10-Jan-18 18:53 31.800524 -106.392505 312 3926ft 0kts
10-Jan-18 18:54 31.800523 -106.392505 312 3926ft 0kts
10-Jan-18 18:55 31.800523 -106.392505 313 3926ft 0kts
10-Jan-18 18:56 31.800524 -106.392505 312 3926ft 0kts
10-Jan-18 18:57 31.800524 -106.392505 312 3926ft 0kts

Navigation Log

Ident Type
Flight plan parsing failed, navigation log unavailable